Welcome to Northern Hawkes Bay. New Zealand.
PWS Header
      nz Flag



Hit Counter


W3C Valid W3C Valid logo


    Wairoa

Select any of the Stations below to visit their websites.










Historic Data from Weather Underground
Select the location of interest below. Wairoa is the default. Please have patience, this Data is slow to load in.
Northern Hawkes Bay Historical Data
Daily Summary for August 11, 2017 Units:  Metric    English   Both
« Previous Day
Next Day »
Daily Weekly Monthly Yearly Custom
  High: Low: Average:
Temperature: 18.9 °C 7.0 °C 12.3 °C
Dew Point: 9.4 °C 5.1 °C 7 °C
Humidity: 90% 47% 71%
Wind Speed: 17.2km/h 0.0km/h 4.9km/h
Wind Gust: 23.3km/h - -
Wind- - WNW
Pressure: 1004.6 hPa 998.5 hPa -
Precipitation: 0.0 mm    
Historical Graphs
 
 
Tabular Data for August 11, 2017
Time Temperature Dew Point Pressure Wind Wind Speed Wind Gust Humidity Rainfall Rate (Hourly) solar
00:02 9.2 °C 7.0 °C 1000.2 hPa NNW 6.1 km/h 8.7 km/h 86% 0.0 mm 0 W/m2
00:07 9.8 °C 7.4 °C 1000.2 hPa North 8.7 km/h 12.2 km/h 85% 0.0 mm 0 W/m2
00:12 10.7 °C 7.2 °C 1000.2 hPa North 9.7 km/h 18.3 km/h 79% 0.0 mm 0 W/m2
00:17 11.1 °C 6.7 °C 1000.2 hPa North 6.1 km/h 18.3 km/h 74% 0.0 mm 0 W/m2
00:22 11.3 °C 6.7 °C 999.9 hPa North 8.7 km/h 14.8 km/h 73% 0.0 mm 0 W/m2
00:27 11.5 °C 6.6 °C 1000.2 hPa North 8.7 km/h 15.8 km/h 72% 0.0 mm 0 W/m2
00:33 11.7 °C 6.4 °C 1000.2 hPa North 12.2 km/h 17.2 km/h 70% 0.0 mm 0 W/m2
00:38 11.7 °C 6.2 °C 999.9 hPa North 9.7 km/h 17.2 km/h 69% 0.0 mm 0 W/m2
00:43 11.9 °C 6.2 °C 1000.2 hPa North 7.2 km/h 17.2 km/h 68% 0.0 mm 0 W/m2
00:48 11.8 °C 6.3 °C 999.9 hPa North 7.2 km/h 15.8 km/h 69% 0.0 mm 0 W/m2
00:53 11.5 °C 6.2 °C 999.9 hPa NNW 6.1 km/h 11.1 km/h 70% 0.0 mm 0 W/m2
00:58 11.1 °C 6.2 °C 1000.2 hPa NW 6.1 km/h 9.7 km/h 72% 0.0 mm 0 W/m2
01:03 10.7 °C 6.3 °C 1000.2 hPa NW 3.5 km/h 9.7 km/h 74% 0.0 mm 0 W/m2
01:08 10.4 °C 6.3 °C 1000.2 hPa Calm   8.7 km/h 76% 0.0 mm 0 W/m2
01:13 10.2 °C 6.2 °C 1000.6 hPa Calm   5.0 km/h 76% 0.0 mm 0 W/m2
01:18 10.0 °C 6.2 °C 1000.2 hPa Calm   3.5 km/h 77% 0.0 mm 0 W/m2
01:23 9.9 °C 6.4 °C 999.9 hPa Calm   2.6 km/h 79% 0.0 mm 0 W/m2
01:28 9.8 °C 6.5 °C 1000.2 hPa NNW 1.1 km/h 3.5 km/h 80% 0.0 mm 0 W/m2
01:33 9.8 °C 6.7 °C 1000.2 hPa NNW 1.1 km/h 5.0 km/h 81% 0.0 mm 0 W/m2
01:38 9.8 °C 6.7 °C 1000.2 hPa Calm   5.0 km/h 81% 0.0 mm 0 W/m2
01:43 9.8 °C 6.7 °C 1000.2 hPa NW 3.5 km/h 7.2 km/h 81% 0.0 mm 0 W/m2
01:48 10.0 °C 6.7 °C 1000.2 hPa NNW 1.1 km/h 7.2 km/h 80% 0.0 mm 0 W/m2
01:53 10.1 °C 6.6 °C 1000.2 hPa NNW 3.5 km/h 6.1 km/h 79% 0.0 mm 0 W/m2
01:58 10.2 °C 6.6 °C 1000.2 hPa NNW 5.0 km/h 7.2 km/h 78% 0.0 mm 0 W/m2
02:03 10.1 °C 6.4 °C 999.9 hPa NNW 5.0 km/h 9.7 km/h 78% 0.0 mm 0 W/m2
02:08 10.0 °C 6.6 °C 999.9 hPa North 3.5 km/h 9.7 km/h 79% 0.0 mm 0 W/m2
02:13 10.0 °C 6.6 °C 999.9 hPa North 7.2 km/h 11.1 km/h 79% 0.0 mm 0 W/m2
02:18 10.0 °C 6.7 °C 999.9 hPa NNW 3.5 km/h 11.1 km/h 80% 0.0 mm 0 W/m2
02:23 10.0 °C 6.7 °C 999.9 hPa NNW 2.6 km/h 11.1 km/h 80% 0.0 mm 0 W/m2
02:28 9.9 °C 6.6 °C 999.5 hPa NNW 1.1 km/h 6.1 km/h 80% 0.0 mm 0 W/m2
02:33 9.8 °C 6.5 °C 999.5 hPa WNW 3.5 km/h 5.0 km/h 80% 0.0 mm 0 W/m2
02:38 9.7 °C 6.6 °C 999.5 hPa West 2.6 km/h 5.0 km/h 81% 0.0 mm 0 W/m2
02:57 9.5 °C 6.8 °C 999.2 hPa NW 3.5 km/h 7.2 km/h 83% 0.0 mm 0 W/m2
03:02 9.5 °C 6.6 °C 999.2 hPa NW 2.6 km/h 7.2 km/h 82% 0.0 mm 0 W/m2
03:07 9.3 °C 6.6 °C 998.9 hPa Calm   6.1 km/h 83% 0.0 mm 0 W/m2
03:12 9.2 °C 6.4 °C 998.9 hPa NNW 1.1 km/h 5.0 km/h 83% 0.0 mm 0 W/m2
03:17 9.1 °C 6.4 °C 998.9 hPa Calm   3.5 km/h 83% 0.0 mm 0 W/m2
03:22 8.9 °C 6.3 °C 998.9 hPa Calm   2.6 km/h 84% 0.0 mm 0 W/m2
03:27 8.9 °C 6.5 °C 998.9 hPa NW 5.0 km/h 6.1 km/h 85% 0.0 mm 0 W/m2
03:32 9.0 °C 6.4 °C 998.9 hPa NW 3.5 km/h 6.1 km/h 84% 0.0 mm 0 W/m2
03:37 8.8 °C 6.4 °C 998.5 hPa NW 3.5 km/h 6.1 km/h 85% 0.0 mm 0 W/m2
03:42 8.7 °C 6.3 °C 998.5 hPa NNW 2.6 km/h 6.1 km/h 85% 0.0 mm 0 W/m2
03:47 8.6 °C 6.2 °C 998.5 hPa Calm   6.1 km/h 85% 0.0 mm 0 W/m2
03:52 8.5 °C 6.1 °C 998.9 hPa Calm   3.5 km/h 85% 0.0 mm 0 W/m2
03:57 8.3 °C 5.9 °C 998.5 hPa NW 3.5 km/h 6.1 km/h 85% 0.0 mm 0 W/m2
04:02 8.4 °C 6.2 °C 998.5 hPa NW 3.5 km/h 6.1 km/h 86% 0.0 mm 0 W/m2
04:07 8.3 °C 6.1 °C 998.5 hPa NW 5.0 km/h 7.2 km/h 86% 0.0 mm 0 W/m2
04:12 8.1 °C 5.9 °C 998.5 hPa NW 5.0 km/h 8.7 km/h 86% 0.0 mm 0 W/m2
04:17 8.0 °C 5.9 °C 998.9 hPa NW 6.1 km/h 9.7 km/h 87% 0.0 mm 0 W/m2
04:22 8.0 °C 5.9 °C 998.9 hPa WNW 3.5 km/h 9.7 km/h 87% 0.0 mm 0 W/m2
04:27 8.0 °C 5.9 °C 998.9 hPa WNW 1.1 km/h 9.7 km/h 87% 0.0 mm 0 W/m2
04:32 8.0 °C 5.9 °C 998.9 hPa Calm   5.0 km/h 87% 0.0 mm 0 W/m2
04:37 7.7 °C 5.5 °C 998.9 hPa Calm   2.6 km/h 86% 0.0 mm 0 W/m2
04:42 7.6 °C 5.6 °C 998.9 hPa Calm     87% 0.0 mm 0 W/m2
04:47 7.8 °C 5.8 °C 998.9 hPa Calm     87% 0.0 mm 0 W/m2
05:03 7.9 °C 6.1 °C 999.2 hPa NNW 3.5 km/h 6.1 km/h 88% 0.0 mm 0 W/m2
05:08 7.7 °C 5.7 °C 998.9 hPa North 2.6 km/h 6.1 km/h 87% 0.0 mm 0 W/m2
05:13 7.6 °C 5.6 °C 998.9 hPa NNW 2.6 km/h 5.0 km/h 87% 0.0 mm 0 W/m2
05:18 7.8 °C 5.9 °C 998.9 hPa NW 3.5 km/h 5.0 km/h 88% 0.0 mm 0 W/m2
05:23 7.8 °C 5.9 °C 998.9 hPa NW 6.1 km/h 7.2 km/h 88% 0.0 mm 0 W/m2
05:28 7.9 °C 5.9 °C 998.9 hPa NW 6.1 km/h 8.7 km/h 87% 0.0 mm 0 W/m2
05:33 7.8 °C 5.8 °C 998.9 hPa NW 3.5 km/h 8.7 km/h 87% 0.0 mm 0 W/m2
05:38 7.7 °C 5.7 °C 998.9 hPa NW 5.0 km/h 8.7 km/h 87% 0.0 mm 0 W/m2
05:43 7.6 °C 5.6 °C 998.9 hPa NW 5.0 km/h 7.2 km/h 87% 0.0 mm 0 W/m2
05:48 7.6 °C 5.6 °C 998.9 hPa NW 5.0 km/h 7.2 km/h 87% 0.0 mm 0 W/m2
05:53 7.6 °C 5.6 °C 998.9 hPa NW 1.1 km/h 8.7 km/h 87% 0.0 mm 0 W/m2
05:58 7.4 °C 5.4 °C 998.9 hPa Calm   8.7 km/h 87% 0.0 mm 0 W/m2
06:03 7.3 °C 5.3 °C 998.9 hPa Calm   2.6 km/h 87% 0.0 mm 0 W/m2
06:08 7.1 °C 5.1 °C 999.2 hPa Calm   1.1 km/h 87% 0.0 mm 0 W/m2
06:13 7.3 °C 5.4 °C 998.9 hPa North 3.5 km/h 6.1 km/h 88% 0.0 mm 0 W/m2
06:18 7.4 °C 5.7 °C 998.9 hPa North 5.0 km/h 8.7 km/h 89% 0.0 mm 0 W/m2
06:23 7.5 °C 5.8 °C 998.9 hPa NNW 2.6 km/h 8.7 km/h 89% 0.0 mm 0 W/m2
06:28 7.3 °C 5.6 °C 999.2 hPa Calm   7.2 km/h 89% 0.0 mm 0 W/m2
06:33 7.1 °C 5.2 °C 999.2 hPa Calm   3.5 km/h 88% 0.0 mm 0 W/m2
06:38 7.1 °C 5.2 °C 998.9 hPa North 1.1 km/h 3.5 km/h 88% 0.0 mm 0 W/m2
06:43 7.1 °C 5.4 °C 998.9 hPa NNW 3.5 km/h 5.0 km/h 89% 0.0 mm 0 W/m2
06:48 7.2 °C 5.5 °C 998.9 hPa NW 3.5 km/h 5.0 km/h 89% 0.0 mm 0 W/m2
06:53 7.4 °C 5.9 °C 998.9 hPa NW 2.6 km/h 5.0 km/h 90% 0.0 mm 0 W/m2
06:58 7.4 °C 5.7 °C 998.9 hPa NNW 2.6 km/h 5.0 km/h 89% 0.0 mm 0 W/m2
07:03 7.2 °C 5.5 °C 998.9 hPa NNW 2.6 km/h 5.0 km/h 89% 0.0 mm 0 W/m2
07:08 7.1 °C 5.4 °C 998.9 hPa NNW 2.6 km/h 5.0 km/h 89% 0.0 mm 4 W/m2
07:13 7.0 °C 5.3 °C 998.9 hPa NW 1.1 km/h 6.1 km/h 89% 0.0 mm 7 W/m2
07:19 7.1 °C 5.4 °C 998.9 hPa Calm   6.1 km/h 89% 0.0 mm 12 W/m2
07:24 7.1 °C 5.6 °C 998.9 hPa NNW 3.5 km/h 5.0 km/h 90% 0.0 mm 36 W/m2
07:29 7.5 °C 5.9 °C 998.9 hPa NNW 5.0 km/h 6.1 km/h 90% 0.0 mm 54 W/m2
07:34 8.0 °C 6.3 °C 998.9 hPa NW 5.0 km/h 8.7 km/h 89% 0.0 mm 66 W/m2
07:39 8.4 °C 6.7 °C 998.9 hPa NW 6.1 km/h 8.7 km/h 89% 0.0 mm 78 W/m2
07:44 8.7 °C 6.7 °C 998.9 hPa NW 2.6 km/h 8.7 km/h 87% 0.0 mm 88 W/m2
07:49 9.2 °C 7.0 °C 999.2 hPa NW 2.6 km/h 8.7 km/h 86% 0.0 mm 97 W/m2
07:54 9.6 °C 7.2 °C 999.2 hPa NNW 2.6 km/h 6.1 km/h 85% 0.0 mm 108 W/m2
07:59 10.0 °C 7.2 °C 999.2 hPa NNW 5.0 km/h 6.1 km/h 83% 0.0 mm 118 W/m2
08:04 10.0 °C 6.9 °C 999.2 hPa NW 7.2 km/h 9.7 km/h 81% 0.0 mm 119 W/m2
08:09 10.1 °C 7.0 °C 999.2 hPa NW 5.0 km/h 9.7 km/h 81% 0.0 mm 138 W/m2
08:14 10.2 °C 7.1 °C 999.2 hPa NNW 5.0 km/h 9.7 km/h 81% 0.0 mm 145 W/m2
08:19 10.5 °C 7.2 °C 999.2 hPa NNW 3.5 km/h 8.7 km/h 80% 0.0 mm 153 W/m2
08:24 10.8 °C 7.5 °C 999.2 hPa NNW 2.6 km/h 7.2 km/h 80% 0.0 mm 162 W/m2
08:29 11.0 °C 7.1 °C 999.2 hPa NW 2.6 km/h 6.1 km/h 77% 0.0 mm 171 W/m2
08:34 11.7 °C 7.8 °C 999.5 hPa NW 2.6 km/h 6.1 km/h 77% 0.0 mm 181 W/m2
08:39 11.8 °C 7.5 °C 999.2 hPa NW 5.0 km/h 7.2 km/h 75% 0.0 mm 191 W/m2
08:44 11.6 °C 7.3 °C 999.5 hPa NW 6.1 km/h 8.7 km/h 75% 0.0 mm 200 W/m2
08:49 11.8 °C 7.5 °C 999.5 hPa NW 5.0 km/h 8.7 km/h 75% 0.0 mm 209 W/m2
08:54 12.2 °C 7.7 °C 999.5 hPa NW 2.6 km/h 8.7 km/h 74% 0.0 mm 221 W/m2
08:59 12.9 °C 8.4 °C 999.5 hPa Calm   6.1 km/h 74% 0.0 mm 236 W/m2
09:04 14.2 °C 9.0 °C 999.5 hPa NNW 2.6 km/h 5.0 km/h 71% 0.0 mm 252 W/m2
09:09 15.1 °C 9.0 °C 999.5 hPa North 2.6 km/h 5.0 km/h 67% 0.0 mm 264 W/m2
09:14 15.7 °C 9.4 °C 999.5 hPa ENE 2.6 km/h 5.0 km/h 66% 0.0 mm 277 W/m2
09:19 16.0 °C 8.9 °C 999.5 hPa ESE 3.5 km/h 6.1 km/h 63% 0.0 mm 287 W/m2
09:24 16.3 °C 9.3 °C 999.5 hPa Calm   6.1 km/h 63% 0.0 mm 295 W/m2
09:29 16.5 °C 8.4 °C 999.5 hPa WNW 6.1 km/h 8.7 km/h 59% 0.0 mm 302 W/m2
09:34 15.6 °C 7.6 °C 999.5 hPa North 3.5 km/h 12.2 km/h 59% 0.0 mm 302 W/m2
09:39 15.6 °C 8.1 °C 999.5 hPa North 5.0 km/h 12.2 km/h 61% 0.0 mm 278 W/m2
09:44 15.5 °C 7.8 °C 999.5 hPa North 5.0 km/h 13.4 km/h 60% 0.0 mm 223 W/m2
09:49 15.6 °C 7.9 °C 999.5 hPa North 6.1 km/h 13.4 km/h 60% 0.0 mm 124 W/m2
09:54 15.6 °C 7.9 °C 999.5 hPa NNW 5.0 km/h 11.1 km/h 60% 0.0 mm 63 W/m2
09:59 15.6 °C 8.3 °C 999.9 hPa North 3.5 km/h 11.1 km/h 62% 0.0 mm 58 W/m2
10:04 16.0 °C 8.2 °C 1000.2 hPa North 7.2 km/h 11.1 km/h 60% 0.0 mm 56 W/m2
10:09 15.8 °C 7.8 °C 1000.6 hPa NNW 6.1 km/h 12.2 km/h 59% 0.0 mm 53 W/m2
10:14 15.6 °C 7.9 °C 1000.6 hPa NNW 6.1 km/h 14.8 km/h 60% 0.0 mm 52 W/m2
10:19 15.8 °C 8.3 °C 1000.6 hPa NNW 6.1 km/h 14.8 km/h 61% 0.0 mm 52 W/m2
10:24 16.1 °C 7.8 °C 1000.6 hPa NNW 5.0 km/h 11.1 km/h 58% 0.0 mm 54 W/m2
10:29 16.0 °C 7.7 °C 1000.6 hPa NNW 8.7 km/h 15.8 km/h 58% 0.0 mm 57 W/m2
10:34 16.0 °C 8.0 °C 1000.6 hPa NW 9.7 km/h 15.8 km/h 59% 0.0 mm 155 W/m2
10:39 16.2 °C 7.4 °C 1000.6 hPa NW 9.7 km/h 17.2 km/h 56% 0.0 mm 269 W/m2
10:44 16.1 °C 7.3 °C 1000.9 hPa NW 8.7 km/h 17.2 km/h 56% 0.0 mm 302 W/m2
10:49 16.4 °C 7.9 °C 1000.6 hPa WNW 7.2 km/h 17.2 km/h 57% 0.0 mm 212 W/m2
10:54 16.4 °C 7.3 °C 1000.9 hPa NW 8.7 km/h 19.5 km/h 55% 0.0 mm 312 W/m2
10:59 16.5 °C 7.2 °C 1000.9 hPa NW 11.1 km/h 23.3 km/h 54% 0.0 mm 267 W/m2
11:04 16.4 °C 7.6 °C 1000.6 hPa NNW 11.1 km/h 23.3 km/h 56% 0.0 mm 223 W/m2
11:09 16.3 °C 7.2 °C 1000.6 hPa NNW 8.7 km/h 17.2 km/h 55% 0.0 mm 316 W/m2
11:14 16.3 °C 7.5 °C 1000.6 hPa NW 11.1 km/h 17.2 km/h 56% 0.0 mm 319 W/m2
11:19 16.6 °C 8.1 °C 1000.6 hPa NW 7.2 km/h 13.4 km/h 57% 0.0 mm 324 W/m2
11:24 16.4 °C 7.3 °C 1000.6 hPa NW 7.2 km/h 17.2 km/h 55% 0.0 mm 322 W/m2
11:29 16.4 °C 7.3 °C 1000.6 hPa NW 11.1 km/h 20.9 km/h 55% 0.0 mm 322 W/m2
11:34 16.5 °C 7.7 °C 1000.6 hPa NNW 8.7 km/h 20.9 km/h 56% 0.0 mm 323 W/m2
11:39 16.6 °C 7.6 °C 1000.6 hPa NNW 11.1 km/h 18.3 km/h 55% 0.0 mm 323 W/m2
11:44 16.6 °C 7.8 °C 1000.6 hPa NW 7.2 km/h 17.2 km/h 56% 0.0 mm 326 W/m2
11:49 17.3 °C 7.6 °C 1000.6 hPa NNW 11.1 km/h 19.5 km/h 53% 0.0 mm 324 W/m2
11:55 17.2 °C 7.6 °C 1000.2 hPa NNW 7.2 km/h 19.5 km/h 53% 0.0 mm 327 W/m2
12:00 17.5 °C 7.6 °C 1000.2 hPa NW 14.8 km/h 19.5 km/h 52% 0.0 mm 326 W/m2
12:05 17.4 °C 7.4 °C 1000.2 hPa NNW 9.7 km/h 19.5 km/h 52% 0.0 mm 324 W/m2
12:10 17.5 °C 7.3 °C 1000.2 hPa NNW 11.1 km/h 19.5 km/h 51% 0.0 mm 322 W/m2
12:15 17.4 °C 7.2 °C 1000.2 hPa NW 13.4 km/h 23.3 km/h 51% 0.0 mm 318 W/m2
12:20 17.3 °C 7.1 °C 999.9 hPa NNW 14.8 km/h 23.3 km/h 51% 0.0 mm 318 W/m2
12:25 17.4 °C 7.2 °C 1000.2 hPa NNW 11.1 km/h 23.3 km/h 51% 0.0 mm 318 W/m2
12:30 17.6 °C 7.1 °C 999.9 hPa NW 9.7 km/h 23.3 km/h 50% 0.0 mm 315 W/m2
12:35 17.6 °C 7.1 °C 999.9 hPa NW 13.4 km/h 20.9 km/h 50% 0.0 mm 312 W/m2
12:40 17.9 °C 7.6 °C 999.9 hPa NW 11.1 km/h 20.9 km/h 51% 0.0 mm 312 W/m2
12:46 18.0 °C 6.8 °C 1000.2 hPa NW 12.2 km/h 23.3 km/h 48% 0.0 mm 311 W/m2
12:51 17.8 °C 6.9 °C 999.9 hPa NW 11.1 km/h 23.3 km/h 49% 0.0 mm 305 W/m2
12:56 18.1 °C 7.2 °C 999.5 hPa NW 9.7 km/h 21.9 km/h 49% 0.0 mm 301 W/m2
13:01 18.5 °C 7.6 °C 999.9 hPa NW 7.2 km/h 15.8 km/h 49% 0.0 mm 299 W/m2
13:06 18.2 °C 6.7 °C 999.5 hPa NW 7.2 km/h 17.2 km/h 47% 0.0 mm 294 W/m2
13:11 18.3 °C 7.1 °C 999.5 hPa NNW 14.8 km/h 17.2 km/h 48% 0.0 mm 288 W/m2
13:16 18.6 °C 7.4 °C 999.5 hPa NW 9.7 km/h 15.8 km/h 48% 0.0 mm 284 W/m2
13:21 18.6 °C 7.4 °C 999.5 hPa WNW 6.1 km/h 15.8 km/h 48% 0.0 mm 279 W/m2
13:26 18.9 °C 7.3 °C 999.5 hPa NW 7.2 km/h 15.8 km/h 47% 0.0 mm 296 W/m2
13:31 18.3 °C 6.8 °C 999.5 hPa NW 6.1 km/h 17.2 km/h 47% 0.0 mm 294 W/m2
13:36 18.1 °C 6.9 °C 999.5 hPa NW 9.7 km/h 17.2 km/h 48% 0.0 mm 172 W/m2
13:41 17.7 °C 7.2 °C 999.5 hPa NW 9.7 km/h 17.2 km/h 50% 0.0 mm 170 W/m2
13:46 17.6 °C 7.1 °C 999.5 hPa NW 7.2 km/h 17.2 km/h 50% 0.0 mm 177 W/m2
13:51 17.5 °C 6.9 °C 999.5 hPa NW 3.5 km/h 13.4 km/h 50% 0.0 mm 149 W/m2
13:56 17.8 °C 7.2 °C 999.5 hPa NW 5.0 km/h 12.2 km/h 50% 0.0 mm 168 W/m2
14:01 18.0 °C 6.8 °C 999.5 hPa NW 6.1 km/h 12.2 km/h 48% 0.0 mm 150 W/m2
14:06 17.8 °C 7.2 °C 999.5 hPa NW 7.2 km/h 13.4 km/h 50% 0.0 mm 132 W/m2
14:11 17.5 °C 6.7 °C 999.9 hPa WNW 6.1 km/h 15.8 km/h 49% 0.0 mm 128 W/m2
14:16 17.5 °C 6.9 °C 999.9 hPa WNW 1.1 km/h 15.8 km/h 50% 0.0 mm 124 W/m2
14:21 17.6 °C 7.1 °C 999.9 hPa West 6.1 km/h 11.1 km/h 50% 0.0 mm 129 W/m2
14:26 17.5 °C 7.3 °C 999.9 hPa West 5.0 km/h 9.7 km/h 51% 0.0 mm 115 W/m2
14:31 17.6 °C 7.3 °C 999.9 hPa WSW 7.2 km/h 9.7 km/h 51% 0.0 mm 136 W/m2
14:50 17.1 °C 9.1 °C 1000.2 hPa SW 5.0 km/h 13.4 km/h 59% 0.0 mm 164 W/m2
14:56 17.9 °C 8.2 °C 1000.6 hPa SW 11.1 km/h 14.8 km/h 53% 0.0 mm 123 W/m2
15:01 17.2 °C 7.6 °C 1000.6 hPa SW 9.7 km/h 15.8 km/h 53% 0.0 mm 86 W/m2
15:06 16.6 °C 7.8 °C 1000.6 hPa SW 7.2 km/h 15.8 km/h 56% 0.0 mm 100 W/m2
15:11 16.5 °C 8.2 °C 1000.6 hPa SW 3.5 km/h 15.8 km/h 58% 0.0 mm 120 W/m2
15:17 16.9 °C 8.3 °C 1000.6 hPa SW 5.0 km/h 12.2 km/h 57% 0.0 mm 80 W/m2
15:22 16.7 °C 7.9 °C 1000.6 hPa SSW 7.2 km/h 12.2 km/h 56% 0.0 mm 83 W/m2
15:27 17.1 °C 8.0 °C 1000.9 hPa SSW 5.0 km/h 13.4 km/h 55% 0.0 mm 143 W/m2
15:32 17.3 °C 7.3 °C 1000.9 hPa SW 17.2 km/h 21.9 km/h 52% 0.0 mm 143 W/m2
15:37 17.2 °C 7.3 °C 1000.6 hPa SW 11.1 km/h 21.9 km/h 52% 0.0 mm 117 W/m2
15:42 16.9 °C 7.0 °C 1000.6 hPa SW 9.7 km/h 21.9 km/h 52% 0.0 mm 48 W/m2
15:47 16.3 °C 7.0 °C 1000.6 hPa WSW 8.7 km/h 20.9 km/h 54% 0.0 mm 95 W/m2
15:52 16.4 °C 7.3 °C 1000.6 hPa SW 13.4 km/h 17.2 km/h 55% 0.0 mm 94 W/m2
15:57 16.5 °C 7.9 °C 1000.9 hPa SW 9.7 km/h 17.2 km/h 57% 0.0 mm 92 W/m2
16:04 16.3 °C 7.5 °C 1000.9 hPa WSW 12.2 km/h 17.2 km/h 56% 0.0 mm 40 W/m2
16:09 15.9 °C 7.4 °C 1000.9 hPa WSW 7.2 km/h 19.5 km/h 57% 0.0 mm 69 W/m2
16:14 15.8 °C 7.3 °C 1000.9 hPa WSW 11.1 km/h 19.5 km/h 57% 0.0 mm 61 W/m2
16:20 15.5 °C 7.8 °C 1000.9 hPa SW 8.7 km/h 17.2 km/h 60% 0.0 mm 35 W/m2
16:25 15.0 °C 7.6 °C 1001.2 hPa SW 9.7 km/h 17.2 km/h 61% 0.0 mm 30 W/m2
16:30 14.6 °C 7.9 °C 1001.2 hPa WSW 9.7 km/h 17.2 km/h 64% 0.0 mm 28 W/m2
16:35 14.4 °C 7.7 °C 1001.2 hPa WSW 5.0 km/h 15.8 km/h 64% 0.0 mm 29 W/m2
16:40 14.6 °C 7.9 °C 1001.2 hPa WSW 8.7 km/h 13.4 km/h 64% 0.0 mm 32 W/m2
16:45 15.0 °C 7.8 °C 1001.2 hPa WSW 9.7 km/h 13.4 km/h 62% 0.0 mm 47 W/m2
16:50 15.3 °C 7.3 °C 1001.2 hPa WSW 9.7 km/h 14.8 km/h 59% 0.0 mm 37 W/m2
16:55 15.0 °C 7.1 °C 1001.2 hPa WSW 7.2 km/h 14.8 km/h 59% 0.0 mm 23 W/m2
17:00 14.6 °C 7.2 °C 1001.6 hPa WSW 3.5 km/h 14.8 km/h 61% 0.0 mm 20 W/m2
17:06 14.4 °C 7.2 °C 1001.6 hPa WSW 1.1 km/h 9.7 km/h 62% 0.0 mm 13 W/m2
17:11 14.3 °C 7.3 °C 1001.6 hPa WNW 1.1 km/h 8.7 km/h 63% 0.0 mm 10 W/m2
17:16 14.5 °C 7.8 °C 1001.6 hPa Calm   5.0 km/h 64% 0.0 mm 5 W/m2
17:21 14.3 °C 7.6 °C 1001.9 hPa Calm   3.5 km/h 64% 0.0 mm 2 W/m2
17:26 13.9 °C 7.4 °C 1001.6 hPa Calm   3.5 km/h 65% 0.0 mm 0 W/m2
17:31 13.7 °C 7.4 °C 1001.9 hPa NNW 2.6 km/h 3.5 km/h 66% 0.0 mm 0 W/m2
17:36 13.4 °C 7.4 °C 1001.9 hPa North 2.6 km/h 5.0 km/h 67% 0.0 mm 0 W/m2
17:41 13.3 °C 7.5 °C 1001.6 hPa NNW 2.6 km/h 5.0 km/h 68% 0.0 mm 0 W/m2
17:46 13.1 °C 7.6 °C 1001.9 hPa Calm   5.0 km/h 69% 0.0 mm 0 W/m2
17:51 12.8 °C 7.4 °C 1001.9 hPa Calm   3.5 km/h 70% 0.0 mm 0 W/m2
18:01 12.3 °C 7.2 °C 1001.9 hPa Calm   2.6 km/h 71% 0.0 mm 0 W/m2
18:06 12.3 °C 7.4 °C 1002.3 hPa Calm   1.1 km/h 72% 0.0 mm 0 W/m2
18:11 12.3 °C 7.6 °C 1002.3 hPa Calm   1.1 km/h 73% 0.0 mm 0 W/m2
18:16 12.2 °C 7.7 °C 1002.3 hPa Calm   3.5 km/h 74% 0.0 mm 0 W/m2
18:21 12.3 °C 7.8 °C 1002.3 hPa North 3.5 km/h 5.0 km/h 74% 0.0 mm 0 W/m2
18:26 12.3 °C 7.8 °C 1002.6 hPa North 2.6 km/h 5.0 km/h 74% 0.0 mm 0 W/m2
18:31 12.2 °C 7.7 °C 1002.9 hPa North 1.1 km/h 5.0 km/h 74% 0.0 mm 0 W/m2
18:36 12.2 °C 7.9 °C 1002.6 hPa NNW 1.1 km/h 5.0 km/h 75% 0.0 mm 0 W/m2
18:41 12.1 °C 7.8 °C 1002.6 hPa NNW 1.1 km/h 5.0 km/h 75% 0.0 mm 0 W/m2
18:52 12.0 °C 7.9 °C 1002.9 hPa NNW 1.1 km/h 5.0 km/h 76% 0.0 mm 0 W/m2
18:57 11.8 °C 7.9 °C 1002.9 hPa NNW 2.6 km/h 5.0 km/h 77% 0.0 mm 0 W/m2
19:02 11.6 °C 7.9 °C 1002.6 hPa NNW 5.0 km/h 7.2 km/h 78% 0.0 mm 0 W/m2
19:07 11.5 °C 8.0 °C 1002.9 hPa NNW 3.5 km/h 7.2 km/h 79% 0.0 mm 0 W/m2
19:12 11.3 °C 8.0 °C 1002.9 hPa North 3.5 km/h 7.2 km/h 80% 0.0 mm 0 W/m2
19:17 11.2 °C 7.9 °C 1002.9 hPa North 6.1 km/h 8.7 km/h 80% 0.0 mm 0 W/m2
19:23 11.3 °C 8.0 °C 1002.9 hPa North 1.1 km/h 8.7 km/h 80% 0.0 mm 0 W/m2
19:28 11.0 °C 7.7 °C 1002.9 hPa NNW 3.5 km/h 8.7 km/h 80% 0.0 mm 0 W/m2
19:33 10.9 °C 7.9 °C 1002.9 hPa NNW 2.6 km/h 7.2 km/h 82% 0.0 mm 0 W/m2
19:38 10.8 °C 8.1 °C 1002.9 hPa NNW 3.5 km/h 7.2 km/h 83% 0.0 mm 0 W/m2
19:43 10.7 °C 7.9 °C 1003.3 hPa NNW 2.6 km/h 6.1 km/h 83% 0.0 mm 0 W/m2
19:48 10.6 °C 8.0 °C 1002.9 hPa North 3.5 km/h 6.1 km/h 84% 0.0 mm 0 W/m2
19:53 10.5 °C 7.9 °C 1003.3 hPa North 3.5 km/h 6.1 km/h 84% 0.0 mm 0 W/m2
19:58 10.5 °C 7.9 °C 1003.3 hPa North 5.0 km/h 7.2 km/h 84% 0.0 mm 0 W/m2
20:03 10.7 °C 7.9 °C 1003.3 hPa NNW 3.5 km/h 8.7 km/h 83% 0.0 mm 0 W/m2
20:08 10.7 °C 7.6 °C 1003.6 hPa NNW 3.5 km/h 8.7 km/h 81% 0.0 mm 0 W/m2
20:13 10.7 °C 7.4 °C 1003.6 hPa NNW 3.5 km/h 6.1 km/h 80% 0.0 mm 0 W/m2
20:18 10.8 °C 7.3 °C 1003.6 hPa NNW 3.5 km/h 6.1 km/h 79% 0.0 mm 0 W/m2
20:23 10.8 °C 7.1 °C 1003.6 hPa NNW 3.5 km/h 7.2 km/h 78% 0.0 mm 0 W/m2
20:28 10.8 °C 7.1 °C 1003.6 hPa NNW 3.5 km/h 7.2 km/h 78% 0.0 mm 0 W/m2
20:33 10.8 °C 6.9 °C 1003.6 hPa NNW 3.5 km/h 7.2 km/h 77% 0.0 mm 0 W/m2
20:38 10.8 °C 6.9 °C 1003.9 hPa NNW 3.5 km/h 7.2 km/h 77% 0.0 mm 0 W/m2
20:43 10.9 °C 6.8 °C 1003.6 hPa North 1.1 km/h 6.1 km/h 76% 0.0 mm 0 W/m2
20:48 10.7 °C 6.7 °C 1003.9 hPa NNE 2.6 km/h 5.0 km/h 76% 0.0 mm 0 W/m2
20:53 10.7 °C 6.7 °C 1003.9 hPa NNE 3.5 km/h 6.1 km/h 76% 0.0 mm 0 W/m2
20:58 10.6 °C 6.6 °C 1003.9 hPa North 1.1 km/h 6.1 km/h 76% 0.0 mm 0 W/m2
21:03 10.5 °C 6.4 °C 1003.9 hPa NNW 2.6 km/h 6.1 km/h 76% 0.0 mm 0 W/m2
21:08 10.4 °C 6.3 °C 1003.9 hPa NW 2.6 km/h 6.1 km/h 76% 0.0 mm 0 W/m2
21:13 10.5 °C 6.4 °C 1003.9 hPa NW 3.5 km/h 7.2 km/h 76% 0.0 mm 0 W/m2
21:18 10.7 °C 6.7 °C 1004.3 hPa NW 3.5 km/h 8.7 km/h 76% 0.0 mm 0 W/m2
21:23 10.9 °C 6.7 °C 1003.9 hPa NW 3.5 km/h 8.7 km/h 75% 0.0 mm 0 W/m2
21:28 11.1 °C 6.4 °C 1004.3 hPa NW 5.0 km/h 7.2 km/h 73% 0.0 mm 0 W/m2
21:33 11.3 °C 6.7 °C 1003.9 hPa NW 7.2 km/h 12.2 km/h 73% 0.0 mm 0 W/m2
21:38 11.7 °C 6.8 °C 1003.9 hPa NW 5.0 km/h 12.2 km/h 72% 0.0 mm 0 W/m2
21:43 11.8 °C 6.7 °C 1004.3 hPa NW 6.1 km/h 9.7 km/h 71% 0.0 mm 0 W/m2
21:48 11.9 °C 6.6 °C 1004.3 hPa NW 5.0 km/h 8.7 km/h 70% 0.0 mm 0 W/m2
21:53 11.9 °C 6.6 °C 1004.3 hPa North 2.6 km/h 9.7 km/h 70% 0.0 mm 0 W/m2
21:58 11.6 °C 6.3 °C 1004.3 hPa NNE 2.6 km/h 9.7 km/h 70% 0.0 mm 0 W/m2
22:04 11.1 °C 6.2 °C 1004.6 hPa NE 2.6 km/h 6.1 km/h 72% 0.0 mm 0 W/m2
22:09 10.8 °C 6.3 °C 1004.6 hPa NE 5.0 km/h 7.2 km/h 74% 0.0 mm 0 W/m2
22:28 10.8 °C 6.6 °C 1004.6 hPa North 3.5 km/h 8.7 km/h 75% 0.0 mm 0 W/m2
22:33 10.8 °C 6.6 °C 1004.6 hPa North 5.0 km/h 8.7 km/h 75% 0.0 mm 0 W/m2
22:38 10.8 °C 6.6 °C 1004.6 hPa North 5.0 km/h 8.7 km/h 75% 0.0 mm 0 W/m2
22:43 10.8 °C 6.3 °C 1004.6 hPa NNW 7.2 km/h 9.7 km/h 74% 0.0 mm 0 W/m2
22:48 10.7 °C 6.4 °C 1004.6 hPa NNW 6.1 km/h 9.7 km/h 75% 0.0 mm 0 W/m2
22:53 10.6 °C 6.3 °C 1004.6 hPa NW 5.0 km/h 9.7 km/h 75% 0.0 mm 0 W/m2
22:58 10.4 °C 6.2 °C 1004.3 hPa NW 5.0 km/h 8.7 km/h 75% 0.0 mm 0 W/m2
23:03 10.3 °C 6.1 °C 1004.6 hPa NW 3.5 km/h 8.7 km/h 75% 0.0 mm 0 W/m2
23:08 10.2 °C 5.9 °C 1004.6 hPa NW 6.1 km/h 8.7 km/h 75% 0.0 mm 0 W/m2
23:13 10.2 °C 6.2 °C 1004.3 hPa NW 6.1 km/h 9.7 km/h 76% 0.0 mm 0 W/m2
23:18 10.2 °C 6.2 °C 1004.6 hPa NNW 5.0 km/h 9.7 km/h 76% 0.0 mm 0 W/m2
23:23 10.3 °C 6.1 °C 1004.6 hPa NNW 5.0 km/h 8.7 km/h 75% 0.0 mm 0 W/m2
23:29 10.4 °C 6.2 °C 1004.6 hPa North 3.5 km/h 7.2 km/h 75% 0.0 mm 0 W/m2
23:34 10.4 °C 5.9 °C 1004.6 hPa North 3.5 km/h 6.1 km/h 74% 0.0 mm 0 W/m2
23:39 10.4 °C 5.9 °C 1004.6 hPa North 3.5 km/h 6.1 km/h 74% 0.0 mm 0 W/m2
23:56 10.3 °C 5.9 °C 1004.6 hPa North 3.5 km/h 8.7 km/h 74% 0.0 mm 0 W/m2
Northern Hawkes Bay. New Zealand Historic Data
Compliments of Weather Underground - 2.25 mb